Observations for Trim Market St
| Time | AQI | Temp °C | Hum % | Pres Pa | CO μg/m³ | H₂S μg/m³ | NO μg/m³ | NO₂ μg/m³ | O₃ μg/m³ | SO₂ μg/m³ | PM1 μg/m³ | PM2.5 μg/m³ | PM10 μg/m³ |
|---|---|---|---|---|---|---|---|---|---|---|---|---|---|
| Wednesday 12 August 2026 | |||||||||||||
| 22:36 | 3 | 25 | 52 | 55,889 | 0 | 0 | 0.88 | 21.36 | 64.48 | 0 | 2.14 | 4.43 | 5.32 |
| 22:34 | 3 | 25 | 52 | 55,888 | 0 | 0 | 0.9 | 18.88 | 65.87 | 0 | 1.43 | 3.93 | 4.58 |
| 22:33 | 3 | 25 | 52 | 55,854 | 0 | 0 | 0.91 | 20.65 | 66.38 | 0 | 2.14 | 4.95 | 6.05 |
| 22:28 | 3 | 25.1 | 51 | 55,830 | 0 | 0 | 0.86 | 17.44 | 65.93 | 0 | 2.14 | 4.45 | 5.31 |
| 22:21 | 3 | 25.3 | 51 | 55,725 | 0 | 1.21 | 0.87 | 22.6 | 61.68 | 0 | 2.14 | 4.47 | 6.79 |
| 22:20 | 3 | 25.3 | 51 | 55,734 | 0 | 0.36 | 0.87 | 21.32 | 63.25 | 0 | 2.14 | 4.47 | 5.3 |
| 22:17 | 3 | 25.4 | 51 | 55,727 | 0 | 0.57 | 0.85 | 19.04 | 62.38 | 0 | 2.14 | 4.99 | 6.04 |
| 22:14 | 3 | 25.5 | 50 | 55,706 | 0 | 3.12 | 0.83 | 24.31 | 68.98 | 0 | 2.85 | 5.01 | 6.04 |
| 22:12 | 3 | 25.5 | 50 | 55,720 | 0 | 0.94 | 0.84 | 20.08 | 63.7 | 0 | 0.71 | 3.47 | 3.81 |
| 22:11 | 3 | 25.6 | 50 | 55,728 | 0 | 3.49 | 0.84 | 24.51 | 67.96 | 0 | 2.14 | 4.51 | 6.78 |
| 22:09 | 3 | 25.6 | 50 | 55,801 | 0 | 1.02 | 0.83 | 20.77 | 66.82 | 0 | 1.43 | 4.52 | 6.03 |
| 22:06 | 3 | 25.7 | 50 | 55,990 | 0 | 2.71 | 0.83 | 22.27 | 65.05 | 0 | 2.14 | 4.53 | 7.53 |
| 21:57 | 3 | 26 | 49 | 57,802 | 0 | 5.12 | 0.84 | 31.59 | 58.85 | 0 | 2.14 | 4.56 | 5.27 |
| 21:56 | 3 | 26 | 49 | 58,005 | 0 | 3.58 | 0.84 | 26.72 | 58.22 | 0 | 2.14 | 5.09 | 10.54 |
| 21:55 | 3 | 26.1 | 49 | 58,224 | 0 | 6.93 | 0.83 | 43.2 | 48.76 | 0 | 1.43 | 4.57 | 6.02 |
| 21:54 | 3 | 26.1 | 48 | 58,580 | 0 | 3.84 | 0.82 | 47.61 | 44.32 | 0 | 1.43 | 4.58 | 6.02 |
| 21:53 | 3 | 26.1 | 48 | 58,681 | 0 | 1.98 | 0.8 | 24.14 | 62.35 | 0 | 2.14 | 4.07 | 5.26 |
| 21:52 | 3 | 26.1 | 48 | 59,024 | 0 | 1.71 | 0.8 | 21.39 | 66.19 | 0 | 2.14 | 4.6 | 5.26 |
| 21:51 | 3 | 26.2 | 48 | 59,215 | 0 | 3.17 | 0.8 | 22.63 | 71.14 | 0 | 1.43 | 4.08 | 6.01 |
| 21:49 | 3 | 26.2 | 48 | 59,593 | 0 | 2.24 | 0.81 | 19.67 | 71.99 | 0 | 0 | 3.06 | 3.37 |